Time;durP1;ratioP1;P1;durP2;ratioP2;P2;SDS_P1;SDS_P2;PMS_P1;PMS_P2;Temp;Humidity;BMP_temperature;BMP_pressure;BME280_temperature;BME280_humidity;BME280_pressure;Samples;Min_cycle;Max_cycle;Signal;HPM_P1;HPM_P2
2022/11/13 00:00:14;;;;;;;57.22;41.28;;;;;;;;;;5133480;27;20049;-69
2022/11/13 00:02:40;;;;;;;59.45;41.88;;;;;;;;;;5134521;27;20509;-70
2022/11/13 00:05:06;;;;;;;61.50;41.10;;;;;;;;;;5133320;27;20087;-69
2022/11/13 00:07:32;;;;;;;59.35;39.28;;;;;;;;;;5152650;27;20046;-69
2022/11/13 00:09:58;;;;;;;56.40;38.53;;;;;;;;;;5135106;27;20098;-69
2022/11/13 00:12:24;;;;;;;53.95;39.42;;;;;;;;;;5139902;27;20046;-70
2022/11/13 00:14:51;;;;;;;54.20;38.42;;;;;;;;;;5142915;27;20043;-69
2022/11/13 00:17:17;;;;;;;56.10;40.53;;;;;;;;;;5124717;27;20043;-70
2022/11/13 00:19:43;;;;;;;51.70;39.28;;;;;;;;;;5133247;27;20039;-70
2022/11/13 00:22:09;;;;;;;56.92;41.63;;;;;;;;;;5138341;27;20043;-69
2022/11/13 00:24:35;;;;;;;56.78;41.53;;;;;;;;;;5133522;27;20054;-70
2022/11/13 00:27:01;;;;;;;53.53;38.38;;;;;;;;;;5119666;27;20046;-69
2022/11/13 00:29:27;;;;;;;48.72;35.60;;;;;;;;;;5133477;27;20047;-69
2022/11/13 00:31:53;;;;;;;50.25;36.67;;;;;;;;;;5115883;27;20043;-69
2022/11/13 00:34:19;;;;;;;57.20;39.95;;;;;;;;;;5113751;27;20520;-69
2022/11/13 00:36:45;;;;;;;50.78;36.78;;;;;;;;;;5155457;27;20053;-69
2022/11/13 00:39:11;;;;;;;49.38;33.28;;;;;;;;;;5133445;27;20043;-70
2022/11/13 00:41:37;;;;;;;46.35;33.17;;;;;;;;;;5134189;27;20088;-69
2022/11/13 00:44:03;;;;;;;45.17;32.33;;;;;;;;;;5148401;27;20091;-69
2022/11/13 00:46:29;;;;;;;44.25;30.38;;;;;;;;;;5124645;27;20043;-69
2022/11/13 00:48:56;;;;;;;44.70;29.70;;;;;;;;;;5102241;27;20046;-68
2022/11/13 00:51:22;;;;;;;47.08;31.13;;;;;;;;;;5132751;27;20383;-69
2022/11/13 00:53:48;;;;;;;41.45;29.92;;;;;;;;;;5114792;27;20047;-68
2022/11/13 00:56:14;;;;;;;39.42;29.98;;;;;;;;;;5133383;27;20155;-69
2022/11/13 00:58:40;;;;;;;37.15;27.77;;;;;;;;;;5144087;27;20051;-69
2022/11/13 01:01:08;;;;;;;40.13;27.70;;;;;;;;;;5114619;27;20043;-69
2022/11/13 01:03:34;;;;;;;38.40;28.02;;;;;;;;;;5118031;27;20448;-70
2022/11/13 01:06:00;;;;;;;36.35;27.40;;;;;;;;;;5140002;27;20050;-69
2022/11/13 01:08:26;;;;;;;39.10;27.00;;;;;;;;;;5128972;27;20138;-69
2022/11/13 01:10:52;;;;;;;38.55;27.45;;;;;;;;;;5143316;27;20402;-68
2022/11/13 01:13:18;;;;;;;38.40;27.92;;;;;;;;;;5115717;27;20114;-69
2022/11/13 01:15:44;;;;;;;39.17;29.33;;;;;;;;;;5133303;27;20043;-69
2022/11/13 01:18:11;;;;;;;38.40;28.00;;;;;;;;;;5141600;27;20038;-70
2022/11/13 01:20:37;;;;;;;37.35;27.60;;;;;;;;;;5153849;27;20038;-69
2022/11/13 01:23:03;;;;;;;38.38;28.95;;;;;;;;;;5146979;27;20062;-68
2022/11/13 01:25:29;;;;;;;43.90;29.17;;;;;;;;;;5133864;27;20051;-68
2022/11/13 01:27:56;;;;;;;37.22;27.55;;;;;;;;;;5118256;27;20065;-68
2022/11/13 01:30:22;;;;;;;35.92;27.35;;;;;;;;;;5144673;27;20554;-70
2022/11/13 01:32:48;;;;;;;35.90;27.15;;;;;;;;;;5153542;27;20095;-71
2022/11/13 01:35:14;;;;;;;39.28;27.38;;;;;;;;;;5123131;27;20044;-71
2022/11/13 01:37:40;;;;;;;41.20;28.77;;;;;;;;;;5136288;27;20043;-72
2022/11/13 01:40:07;;;;;;;39.78;29.08;;;;;;;;;;5140740;27;20046;-71
2022/11/13 01:42:33;;;;;;;39.63;28.48;;;;;;;;;;5136443;27;20078;-71
2022/11/13 01:45:01;;;;;;;37.70;27.10;;;;;;;;;;5109310;27;20553;-68
2022/11/13 01:47:27;;;;;;;38.55;26.95;;;;;;;;;;5137853;27;20055;-68
2022/11/13 01:49:58;;;;;;;36.80;26.05;;;;;;;;;;5153671;27;20035;-70
2022/11/13 01:52:29;;;;;;;36.28;27.20;;;;;;;;;;5155635;27;20062;-72
2022/11/13 01:54:56;;;;;;;38.60;27.85;;;;;;;;;;5103086;27;20039;-70
2022/11/13 01:57:22;;;;;;;39.67;28.20;;;;;;;;;;5165808;27;20414;-71
2022/11/13 01:59:51;;;;;;;37.47;27.90;;;;;;;;;;5137828;27;20046;-70
2022/11/13 02:02:17;;;;;;;36.38;27.13;;;;;;;;;;5135174;27;20085;-71
2022/11/13 02:04:43;;;;;;;36.42;26.08;;;;;;;;;;5121333;27;20043;-71
2022/11/13 02:07:11;;;;;;;37.10;27.42;;;;;;;;;;5136185;27;20047;-70
2022/11/13 02:09:44;;;;;;;35.25;25.73;;;;;;;;;;5135712;27;20463;-69
2022/11/13 02:12:11;;;;;;;37.83;27.15;;;;;;;;;;5118083;27;20054;-69
2022/11/13 02:14:39;;;;;;;39.88;27.00;;;;;;;;;;5146460;27;20039;-69
2022/11/13 02:17:08;;;;;;;37.67;26.08;;;;;;;;;;5151664;27;20045;-68
2022/11/13 02:19:36;;;;;;;35.25;25.33;;;;;;;;;;5126588;27;20043;-70
2022/11/13 02:22:06;;;;;;;36.85;25.35;;;;;;;;;;5121727;27;20580;-69
2022/11/13 02:24:33;;;;;;;35.72;27.13;;;;;;;;;;5133870;27;20185;-70
2022/11/13 02:27:02;;;;;;;38.28;27.23;;;;;;;;;;5170762;27;20122;-69
2022/11/13 02:29:28;;;;;;;42.08;30.15;;;;;;;;;;5116049;27;20043;-70
2022/11/13 02:31:54;;;;;;;43.92;31.35;;;;;;;;;;5136285;27;20047;-70
2022/11/13 02:34:20;;;;;;;40.10;29.20;;;;;;;;;;5139717;27;20130;-69
2022/11/13 02:36:46;;;;;;;37.33;27.70;;;;;;;;;;5177768;27;20050;-69
2022/11/13 02:39:13;;;;;;;35.80;26.55;;;;;;;;;;5134202;27;20129;-69
2022/11/13 02:41:39;;;;;;;;;;;;;;;;;;5150646;27;20051;-69
2022/11/13 02:44:06;;;;;;;34.22;24.20;;;;;;;;;;5135697;27;20385;-69
2022/11/13 02:46:32;;;;;;;35.95;25.70;;;;;;;;;;5135919;27;20049;-69
2022/11/13 02:48:58;;;;;;;36.08;26.15;;;;;;;;;;5135644;27;20047;-70
2022/11/13 02:51:24;;;;;;;35.13;25.08;;;;;;;;;;5147788;27;20078;-69
2022/11/13 02:53:50;;;;;;;34.60;25.15;;;;;;;;;;5112189;27;20051;-71
2022/11/13 02:56:16;;;;;;;37.15;25.80;;;;;;;;;;5116734;27;20399;-69
2022/11/13 02:58:42;;;;;;;35.72;26.55;;;;;;;;;;5135788;27;20096;-69
2022/11/13 03:01:08;;;;;;;34.10;25.27;;;;;;;;;;5119008;27;20076;-70
2022/11/13 03:03:34;;;;;;;33.38;24.50;;;;;;;;;;5139475;27;20050;-70
2022/11/13 03:06:00;;;;;;;33.22;25.23;;;;;;;;;;5144646;27;20474;-70
2022/11/13 03:08:26;;;;;;;33.65;24.65;;;;;;;;;;5151709;27;20494;-70
2022/11/13 03:10:53;;;;;;;33.90;24.05;;;;;;;;;;5137701;27;20468;-69
2022/11/13 03:13:19;;;;;;;35.72;24.83;;;;;;;;;;5144352;27;20494;-69
2022/11/13 03:15:45;;;;;;;35.42;24.27;;;;;;;;;;5121498;27;20482;-70
2022/11/13 03:18:11;;;;;;;29.90;23.65;;;;;;;;;;5155557;27;20154;-70
2022/11/13 03:20:39;;;;;;;32.45;24.77;;;;;;;;;;5137163;27;20034;-70
2022/11/13 03:23:05;;;;;;;31.75;25.10;;;;;;;;;;5144156;27;20117;-70
2022/11/13 03:25:32;;;;;;;34.30;25.75;;;;;;;;;;5143150;27;20055;-69
2022/11/13 03:27:58;;;;;;;36.53;26.38;;;;;;;;;;5133246;27;20043;-69
2022/11/13 03:30:24;;;;;;;35.47;25.52;;;;;;;;;;5134549;27;20035;-69
2022/11/13 03:32:54;;;;;;;33.35;23.85;;;;;;;;;;5135053;27;20074;-69
2022/11/13 03:35:21;;;;;;;32.17;25.20;;;;;;;;;;5141371;27;20440;-69
2022/11/13 03:37:47;;;;;;;34.00;24.95;;;;;;;;;;5152830;27;20050;-70
2022/11/13 03:40:13;;;;;;;31.67;22.85;;;;;;;;;;5109805;27;20045;-70
2022/11/13 03:42:39;;;;;;;33.03;24.98;;;;;;;;;;5133701;27;20047;-70
2022/11/13 03:45:05;;;;;;;34.42;25.27;;;;;;;;;;5135656;27;20043;-70
2022/11/13 03:47:31;;;;;;;39.20;28.55;;;;;;;;;;5155334;27;20034;-69
2022/11/13 03:49:57;;;;;;;39.22;27.35;;;;;;;;;;5150366;27;20213;-70
2022/11/13 03:52:23;;;;;;;35.70;26.58;;;;;;;;;;5152145;27;20051;-69
2022/11/13 03:54:49;;;;;;;39.95;27.50;;;;;;;;;;5140328;27;20699;-69
2022/11/13 03:57:15;;;;;;;39.30;26.65;;;;;;;;;;5141382;27;20123;-69
2022/11/13 03:59:41;;;;;;;37.63;26.40;;;;;;;;;;5133237;27;20042;-69
2022/11/13 04:02:07;;;;;;;38.20;27.88;;;;;;;;;;5134731;27;20379;-70
2022/11/13 04:04:34;;;;;;;37.60;28.35;;;;;;;;;;5146389;27;20051;-70
2022/11/13 04:07:00;;;;;;;37.20;27.52;;;;;;;;;;5141219;27;20082;-69
2022/11/13 04:09:26;;;;;;;38.63;26.27;;;;;;;;;;5137792;27;20084;-69
2022/11/13 04:11:52;;;;;;;36.90;26.35;;;;;;;;;;5130514;27;20043;-70
2022/11/13 04:14:18;;;;;;;33.42;24.77;;;;;;;;;;5146798;27;20130;-69
2022/11/13 04:16:44;;;;;;;33.97;25.15;;;;;;;;;;5133816;27;20862;-69
2022/11/13 04:19:10;;;;;;;35.08;24.10;;;;;;;;;;5137665;27;20055;-69
2022/11/13 04:21:36;;;;;;;33.28;22.92;;;;;;;;;;5143282;27;20146;-69
2022/11/13 04:24:02;;;;;;;30.48;23.08;;;;;;;;;;5133035;27;20478;-70
2022/11/13 04:26:28;;;;;;;32.78;24.48;;;;;;;;;;5134220;27;20043;-69
2022/11/13 04:28:54;;;;;;;32.67;24.70;;;;;;;;;;5146917;27;20046;-70
2022/11/13 04:31:20;;;;;;;37.38;26.08;;;;;;;;;;5141910;27;20746;-70
2022/11/13 04:33:46;;;;;;;36.42;26.60;;;;;;;;;;5115109;27;20054;-70
2022/11/13 04:36:12;;;;;;;35.55;25.77;;;;;;;;;;5136601;27;20439;-71
2022/11/13 04:38:38;;;;;;;36.53;26.25;;;;;;;;;;5154799;27;20054;-70
2022/11/13 04:43:49;;;;;;;34.25;25.42;;;;;;;;;;5144607;27;20101;-70
2022/11/13 04:46:15;;;;;;;35.58;24.50;;;;;;;;;;5138490;27;20043;-69
2022/11/13 04:48:41;;;;;;;34.63;26.48;;;;;;;;;;5142631;27;20046;-69
2022/11/13 04:51:07;;;;;;;34.90;24.67;;;;;;;;;;5163481;27;20137;-70
2022/11/13 04:53:33;;;;;;;36.65;25.15;;;;;;;;;;5142732;27;20050;-70
2022/11/13 04:55:59;;;;;;;35.00;25.17;;;;;;;;;;5134491;27;20047;-70
2022/11/13 04:58:25;;;;;;;36.40;25.42;;;;;;;;;;5167923;27;20045;-70
2022/11/13 05:00:51;;;;;;;35.28;25.83;;;;;;;;;;5141853;27;20056;-69
2022/11/13 05:03:17;;;;;;;37.22;24.63;;;;;;;;;;5141272;27;20074;-70
2022/11/13 05:05:43;;;;;;;33.50;24.10;;;;;;;;;;5136605;27;20051;-71
2022/11/13 05:08:10;;;;;;;31.63;23.10;;;;;;;;;;5152297;27;20046;-70
2022/11/13 05:10:36;;;;;;;31.77;22.52;;;;;;;;;;5153309;27;20047;-69
2022/11/13 05:13:03;;;;;;;35.08;22.95;;;;;;;;;;5145222;27;20097;-70
2022/11/13 05:15:29;;;;;;;31.33;21.73;;;;;;;;;;5119079;27;20047;-70
2022/11/13 05:17:55;;;;;;;31.65;23.17;;;;;;;;;;5119984;27;20110;-70
2022/11/13 05:20:21;;;;;;;32.15;22.70;;;;;;;;;;5136752;27;20127;-70
2022/11/13 05:22:47;;;;;;;33.97;23.02;;;;;;;;;;5118150;27;20099;-70
2022/11/13 05:25:13;;;;;;;33.60;22.77;;;;;;;;;;5101905;27;20068;-70
2022/11/13 05:27:39;;;;;;;29.98;23.17;;;;;;;;;;5137272;27;20518;-71
2022/11/13 05:30:05;;;;;;;30.27;22.52;;;;;;;;;;5158808;27;20478;-69
2022/11/13 05:32:32;;;;;;;30.67;21.77;;;;;;;;;;5151695;27;20043;-69
2022/11/13 05:34:58;;;;;;;31.55;23.20;;;;;;;;;;5137516;27;20041;-69
2022/11/13 05:37:24;;;;;;;33.97;22.95;;;;;;;;;;5136773;27;20050;-69
2022/11/13 05:39:50;;;;;;;35.42;23.50;;;;;;;;;;5151023;27;20049;-69
2022/11/13 05:42:16;;;;;;;35.10;23.42;;;;;;;;;;5156741;27;20054;-69
2022/11/13 05:44:42;;;;;;;33.85;23.05;;;;;;;;;;5122203;27;20047;-68
2022/11/13 05:47:08;;;;;;;31.17;22.15;;;;;;;;;;5149296;27;20047;-68
2022/11/13 05:49:34;;;;;;;30.48;21.70;;;;;;;;;;5159904;27;20042;-69
2022/11/13 05:52:00;;;;;;;30.48;22.13;;;;;;;;;;5150980;27;20106;-68
2022/11/13 05:54:26;;;;;;;33.97;22.65;;;;;;;;;;5137039;27;20078;-68
2022/11/13 05:56:52;;;;;;;31.50;22.30;;;;;;;;;;5146479;27;20039;-68
2022/11/13 05:59:18;;;;;;;31.05;21.17;;;;;;;;;;5138347;27;20039;-68
2022/11/13 06:01:44;;;;;;;29.08;22.10;;;;;;;;;;5122605;27;20047;-68
2022/11/13 06:04:10;;;;;;;36.42;22.95;;;;;;;;;;5135341;27;20088;-68
2022/11/13 06:06:36;;;;;;;34.17;22.05;;;;;;;;;;5149888;27;20053;-68
2022/11/13 06:09:03;;;;;;;32.47;22.27;;;;;;;;;;5153666;27;20046;-68
2022/11/13 06:11:30;;;;;;;31.52;22.08;;;;;;;;;;5141025;27;20119;-68
2022/11/13 06:13:56;;;;;;;31.95;22.98;;;;;;;;;;5146966;27;20038;-68
2022/11/13 06:16:22;;;;;;;;;;;;;;;;;;5137435;27;20047;-68
2022/11/13 06:18:49;;;;;;;33.30;22.38;;;;;;;;;;5134435;27;19926;-68
2022/11/13 06:21:19;;;;;;;30.73;22.92;;;;;;;;;;5157145;27;20514;-68
2022/11/13 06:23:45;;;;;;;29.50;20.58;;;;;;;;;;5162437;27;20050;-68
2022/11/13 06:26:11;;;;;;;32.33;22.00;;;;;;;;;;5140230;27;20047;-69
2022/11/13 06:28:38;;;;;;;33.15;22.25;;;;;;;;;;5117539;27;20096;-68
2022/11/13 06:31:08;;;;;;;32.80;23.27;;;;;;;;;;5139581;27;20119;-68
2022/11/13 06:33:35;;;;;;;27.45;20.70;;;;;;;;;;5170681;27;20055;-68
2022/11/13 06:36:04;;;;;;;29.90;21.88;;;;;;;;;;5147629;27;20046;-68
2022/11/13 06:38:31;;;;;;;28.90;21.35;;;;;;;;;;5137424;27;20133;-68
2022/11/13 06:40:57;;;;;;;34.20;22.58;;;;;;;;;;5150822;27;20478;-67
2022/11/13 06:43:23;;;;;;;29.83;21.25;;;;;;;;;;5154610;27;20038;-68
2022/11/13 06:45:49;;;;;;;32.28;21.17;;;;;;;;;;5135017;27;20043;-67
2022/11/13 06:48:15;;;;;;;30.17;21.48;;;;;;;;;;5134899;27;20043;-68
2022/11/13 06:50:41;;;;;;;31.15;21.63;;;;;;;;;;5143549;27;20133;-68
2022/11/13 06:53:07;;;;;;;34.05;21.67;;;;;;;;;;5166030;27;20418;-68
2022/11/13 06:55:34;;;;;;;32.42;21.85;;;;;;;;;;5147281;27;20481;-68
2022/11/13 06:58:00;;;;;;;30.05;20.65;;;;;;;;;;5142704;27;20043;-68
2022/11/13 07:00:26;;;;;;;28.15;20.42;;;;;;;;;;5151359;27;20074;-68
2022/11/13 07:02:52;;;;;;;28.65;20.13;;;;;;;;;;5153356;27;20383;-68
2022/11/13 07:05:18;;;;;;;29.73;21.02;;;;;;;;;;5169985;27;20401;-68
2022/11/13 07:07:44;;;;;;;28.25;20.27;;;;;;;;;;5119058;27;20043;-68
2022/11/13 07:10:10;;;;;;;27.00;19.02;;;;;;;;;;5134583;27;20135;-70
2022/11/13 07:12:36;;;;;;;28.83;20.02;;;;;;;;;;5136140;27;20047;-69
2022/11/13 07:15:02;;;;;;;30.05;21.25;;;;;;;;;;5153582;27;20046;-69
2022/11/13 07:17:28;;;;;;;28.08;19.85;;;;;;;;;;5127754;27;20398;-69
2022/11/13 07:19:54;;;;;;;29.60;21.17;;;;;;;;;;5154893;27;20121;-69
2022/11/13 07:22:20;;;;;;;28.30;20.98;;;;;;;;;;5122380;27;20191;-69
2022/11/13 07:24:46;;;;;;;31.35;21.40;;;;;;;;;;5147446;27;20050;-69
2022/11/13 07:27:12;;;;;;;30.20;20.98;;;;;;;;;;5145864;27;20039;-69
2022/11/13 07:29:39;;;;;;;28.75;20.42;;;;;;;;;;5133452;27;20127;-69
2022/11/13 07:32:05;;;;;;;30.10;20.70;;;;;;;;;;5119777;27;20043;-68
2022/11/13 07:34:31;;;;;;;29.85;21.20;;;;;;;;;;5148205;27;20150;-69
2022/11/13 07:36:57;;;;;;;32.03;21.17;;;;;;;;;;5132239;27;20039;-69
2022/11/13 07:39:23;;;;;;;28.70;19.77;;;;;;;;;;5134003;27;20046;-68
2022/11/13 07:41:49;;;;;;;33.95;20.90;;;;;;;;;;5136426;27;20043;-68
2022/11/13 07:44:15;;;;;;;30.33;20.50;;;;;;;;;;5147893;27;20093;-68
2022/11/13 07:46:41;;;;;;;28.77;20.58;;;;;;;;;;5146899;27;20042;-68
2022/11/13 07:49:07;;;;;;;29.15;19.83;;;;;;;;;;5132796;27;20047;-68
2022/11/13 07:51:33;;;;;;;30.98;20.48;;;;;;;;;;5145025;27;20447;-68
2022/11/13 07:53:59;;;;;;;29.27;20.73;;;;;;;;;;5116843;27;20126;-69
2022/11/13 07:56:26;;;;;;;28.67;19.80;;;;;;;;;;5128163;27;20078;-69
2022/11/13 07:58:52;;;;;;;28.75;19.92;;;;;;;;;;5140985;27;20121;-69
2022/11/13 08:01:18;;;;;;;28.20;20.55;;;;;;;;;;5137000;27;20039;-69
2022/11/13 08:03:44;;;;;;;27.23;18.77;;;;;;;;;;5139757;27;20099;-69
2022/11/13 08:06:10;;;;;;;31.15;20.17;;;;;;;;;;5158678;27;20046;-69
2022/11/13 08:08:36;;;;;;;27.25;19.05;;;;;;;;;;5136787;27;20145;-68
2022/11/13 08:11:06;;;;;;;29.02;19.77;;;;;;;;;;5148967;27;20130;-69
2022/11/13 08:13:33;;;;;;;29.02;20.50;;;;;;;;;;5140165;27;20046;-69
2022/11/13 08:16:00;;;;;;;28.58;19.92;;;;;;;;;;5175054;27;20598;-69
2022/11/13 08:18:29;;;;;;;26.35;19.98;;;;;;;;;;5173603;27;20121;-69
2022/11/13 08:20:55;;;;;;;27.98;19.88;;;;;;;;;;5161994;27;20095;-70
2022/11/13 08:23:21;;;;;;;29.65;19.58;;;;;;;;;;5144161;27;20045;-69
2022/11/13 08:25:47;;;;;;;29.60;18.92;;;;;;;;;;5144183;27;20065;-69
2022/11/13 08:28:14;;;;;;;28.67;19.33;;;;;;;;;;5150345;27;20449;-69
2022/11/13 08:30:40;;;;;;;;;;;;;;;;;;5153458;27;20125;-69
2022/11/13 08:33:06;;;;;;;29.23;19.95;;;;;;;;;;5150739;27;20029;-68
2022/11/13 08:35:32;;;;;;;27.25;19.42;;;;;;;;;;5148965;27;20045;-69
2022/11/13 08:38:01;;;;;;;28.65;19.23;;;;;;;;;;5151324;27;20046;-69
2022/11/13 08:40:28;;;;;;;31.95;19.90;;;;;;;;;;5151981;27;20486;-69
2022/11/13 08:42:57;;;;;;;29.35;20.23;;;;;;;;;;5140336;27;20046;-69
2022/11/13 08:45:23;;;;;;;30.20;20.23;;;;;;;;;;5133907;27;20050;-69
2022/11/13 08:47:49;;;;;;;28.55;20.05;;;;;;;;;;5148218;27;20050;-69
2022/11/13 08:50:16;;;;;;;29.38;20.52;;;;;;;;;;5114689;27;20462;-69
2022/11/13 08:52:43;;;;;;;28.98;19.83;;;;;;;;;;5148225;27;20074;-69
2022/11/13 08:55:09;;;;;;;28.30;19.70;;;;;;;;;;5138457;27;20494;-69
2022/11/13 08:57:35;;;;;;;27.83;20.23;;;;;;;;;;5154308;27;20524;-69
2022/11/13 09:00:01;;;;;;;26.63;20.17;;;;;;;;;;5104347;28;20045;-70
2022/11/13 09:02:27;;;;;;;28.58;20.58;;;;;;;;;;5132882;28;20085;-70
2022/11/13 09:04:53;;;;;;;26.25;19.90;;;;;;;;;;5122765;27;20066;-69
2022/11/13 09:07:19;;;;;;;31.27;20.65;;;;;;;;;;5133022;28;20227;-68
2022/11/13 09:09:45;;;;;;;31.42;20.77;;;;;;;;;;5133065;27;20436;-70
2022/11/13 09:12:11;;;;;;;26.67;19.98;;;;;;;;;;5132855;28;20043;-69
2022/11/13 09:14:37;;;;;;;28.65;19.52;;;;;;;;;;5121142;27;20053;-68
2022/11/13 09:17:04;;;;;;;27.27;20.30;;;;;;;;;;5154925;27;20042;-68
2022/11/13 09:19:30;;;;;;;;;;;;;;;;;;5142985;27;20508;-68
2022/11/13 09:21:56;;;;;;;28.38;19.45;;;;;;;;;;5133294;28;20001;-69
2022/11/13 09:24:22;;;;;;;26.70;19.60;;;;;;;;;;5132849;28;20047;-70
2022/11/13 09:26:48;;;;;;;26.23;18.95;;;;;;;;;;5153067;27;20043;-69
2022/11/13 09:29:14;;;;;;;27.02;19.83;;;;;;;;;;5147967;27;20046;-68
2022/11/13 09:31:40;;;;;;;26.55;19.33;;;;;;;;;;5115177;27;20051;-69
2022/11/13 09:34:07;;;;;;;25.77;19.45;;;;;;;;;;5144524;27;20402;-70
2022/11/13 09:36:33;;;;;;;25.83;18.70;;;;;;;;;;5120749;27;20463;-68
2022/11/13 09:39:02;;;;;;;28.38;19.38;;;;;;;;;;5146481;27;20074;-68
2022/11/13 09:41:31;;;;;;;24.73;19.15;;;;;;;;;;5115196;27;20346;-69
2022/11/13 09:44:02;;;;;;;24.77;18.33;;;;;;;;;;5133011;28;20047;-70
2022/11/13 09:46:46;;;;;;;26.85;19.30;;;;;;;;;;5144901;27;20158;-70
2022/11/13 09:49:17;;;;;;;25.92;18.00;;;;;;;;;;5111063;28;20571;-68
2022/11/13 09:51:50;;;;;;;27.40;19.10;;;;;;;;;;5145134;27;20061;-69
2022/11/13 09:54:17;;;;;;;26.65;18.90;;;;;;;;;;5157190;27;20043;-69
2022/11/13 09:56:46;;;;;;;26.63;18.95;;;;;;;;;;5146644;27;20043;-69
2022/11/13 09:59:22;;;;;;;25.15;18.23;;;;;;;;;;5135816;27;20051;-68
2022/11/13 10:01:56;;;;;;;25.77;18.37;;;;;;;;;;5151688;27;20045;-69
2022/11/13 10:04:45;;;;;;;24.58;17.10;;;;;;;;;;5139849;27;20300;-69
2022/11/13 10:07:15;;;;;;;25.58;17.90;;;;;;;;;;5145051;27;20142;-68
2022/11/13 10:10:04;;;;;;;23.83;17.63;;;;;;;;;;5113774;27;21133;-69
2022/11/13 10:12:31;;;;;;;25.83;18.55;;;;;;;;;;5117929;27;20557;-70
2022/11/13 10:15:00;;;;;;;25.33;18.23;;;;;;;;;;5130041;27;20050;-68
2022/11/13 10:17:30;;;;;;;24.17;18.10;;;;;;;;;;5137900;27;20070;-69
2022/11/13 10:19:59;;;;;;;24.88;18.17;;;;;;;;;;5152860;27;20066;-69
2022/11/13 10:22:31;;;;;;;22.63;17.33;;;;;;;;;;5150492;27;20038;-68
2022/11/13 10:25:01;;;;;;;23.10;17.23;;;;;;;;;;5156478;27;20046;-69
2022/11/13 10:27:27;;;;;;;23.35;17.35;;;;;;;;;;5126068;27;20047;-68
2022/11/13 10:29:53;;;;;;;23.65;18.38;;;;;;;;;;5152996;27;20034;-69
2022/11/13 10:32:19;;;;;;;25.63;17.90;;;;;;;;;;5122346;27;20099;-68
2022/11/13 10:34:49;;;;;;;23.77;17.55;;;;;;;;;;5156776;27;20045;-69
2022/11/13 10:37:34;;;;;;;22.48;17.10;;;;;;;;;;5147244;27;20054;-69
2022/11/13 10:40:00;;;;;;;23.63;17.42;;;;;;;;;;5155438;27;20398;-69
2022/11/13 10:42:36;;;;;;;22.92;17.30;;;;;;;;;;5152054;27;20039;-69
2022/11/13 10:45:02;;;;;;;24.75;17.60;;;;;;;;;;5146287;27;20043;-68
2022/11/13 10:47:31;;;;;;;21.60;16.63;;;;;;;;;;5153781;27;20058;-68
2022/11/13 10:49:57;;;;;;;24.27;18.13;;;;;;;;;;5153806;27;20039;-68
2022/11/13 10:52:25;;;;;;;22.38;17.02;;;;;;;;;;5138937;27;20065;-68
2022/11/13 10:55:04;;;;;;;20.80;16.65;;;;;;;;;;5126199;27;20057;-68
2022/11/13 10:57:34;;;;;;;22.35;17.67;;;;;;;;;;5137005;27;20051;-68
2022/11/13 11:00:00;;;;;;;23.27;17.45;;;;;;;;;;5147360;27;20486;-69
2022/11/13 11:02:27;;;;;;;21.70;16.17;;;;;;;;;;5162940;27;20042;-68
2022/11/13 11:05:02;;;;;;;24.65;16.85;;;;;;;;;;5139130;27;20103;-69
2022/11/13 11:07:28;;;;;;;25.73;17.55;;;;;;;;;;5145524;27;20104;-68
2022/11/13 11:09:55;;;;;;;25.00;18.27;;;;;;;;;;5141982;27;20055;-68
2022/11/13 11:12:22;;;;;;;23.48;17.52;;;;;;;;;;5152848;27;20046;-67
2022/11/13 11:14:58;;;;;;;25.67;18.65;;;;;;;;;;5140535;27;20039;-69
2022/11/13 11:17:42;;;;;;;22.08;16.38;;;;;;;;;;5134429;27;20054;-68
2022/11/13 11:20:28;;;;;;;24.42;17.40;;;;;;;;;;5117931;27;20047;-69
2022/11/13 11:22:58;;;;;;;24.27;17.40;;;;;;;;;;5146682;27;20041;-68
2022/11/13 11:25:24;;;;;;;21.92;16.85;;;;;;;;;;5139237;27;20047;-71
2022/11/13 11:27:55;;;;;;;25.60;17.20;;;;;;;;;;5117312;27;20086;-69
2022/11/13 11:30:22;;;;;;;22.35;16.33;;;;;;;;;;5136234;27;20049;-71
2022/11/13 11:32:52;;;;;;;21.80;15.85;;;;;;;;;;5139199;27;20050;-67
2022/11/13 11:35:19;;;;;;;22.40;16.90;;;;;;;;;;5142082;27;20071;-72
2022/11/13 11:38:01;;;;;;;26.05;17.52;;;;;;;;;;5135639;27;20089;-74
2022/11/13 11:40:32;;;;;;;22.13;16.63;;;;;;;;;;5119223;27;20529;-69
2022/11/13 11:43:06;;;;;;;21.27;16.33;;;;;;;;;;5140520;27;20078;-69
2022/11/13 11:45:43;;;;;;;23.38;16.60;;;;;;;;;;5147852;27;20053;-70
2022/11/13 11:48:17;;;;;;;22.35;17.00;;;;;;;;;;5117781;27;20122;-71
2022/11/13 11:50:45;;;;;;;22.98;16.70;;;;;;;;;;5135178;27;20122;-69
2022/11/13 11:53:11;;;;;;;21.05;15.70;;;;;;;;;;5122591;27;20049;-71
2022/11/13 11:55:58;;;;;;;22.63;17.08;;;;;;;;;;5148359;27;20078;-72
2022/11/13 11:58:24;;;;;;;23.83;16.40;;;;;;;;;;5134751;27;20047;-72
2022/11/13 12:00:52;;;;;;;23.33;16.27;;;;;;;;;;5130737;27;20508;-71
2022/11/13 12:03:25;;;;;;;22.65;15.80;;;;;;;;;;5131517;27;20053;-72
2022/11/13 12:05:57;;;;;;;21.20;15.18;;;;;;;;;;5144510;27;20058;-74
2022/11/13 12:08:49;;;;;;;22.52;16.33;;;;;;;;;;5134561;27;20047;-69
2022/11/13 12:11:18;;;;;;;24.20;16.30;;;;;;;;;;5123939;27;20395;-78
2022/11/13 12:13:47;;;;;;;26.80;15.13;;;;;;;;;;5132462;27;20428;-71
2022/11/13 12:16:32;;;;;;;20.63;15.65;;;;;;;;;;5147027;27;20047;-74
2022/11/13 12:19:01;;;;;;;20.67;15.05;;;;;;;;;;5146587;27;20047;-72
2022/11/13 12:21:29;;;;;;;21.20;15.18;;;;;;;;;;5141731;27;20059;-72
2022/11/13 12:24:05;;;;;;;22.23;15.73;;;;;;;;;;5135846;27;20490;-72
2022/11/13 12:26:37;;;;;;;21.23;15.43;;;;;;;;;;5129499;27;20524;-71
2022/11/13 12:29:20;;;;;;;23.98;16.23;;;;;;;;;;5137982;27;20055;-72
2022/11/13 12:31:59;;;;;;;22.40;16.48;;;;;;;;;;5152496;27;20057;-74
2022/11/13 12:34:28;;;;;;;21.45;16.23;;;;;;;;;;5139089;27;20113;-72
2022/11/13 12:36:55;;;;;;;22.00;16.42;;;;;;;;;;5151448;27;20387;-74
2022/11/13 12:39:33;;;;;;;21.38;16.10;;;;;;;;;;5150608;27;20119;-73
2022/11/13 12:42:02;;;;;;;23.65;16.83;;;;;;;;;;5148942;27;20035;-72
2022/11/13 12:44:29;;;;;;;22.65;15.75;;;;;;;;;;5143125;27;20034;-72
2022/11/13 12:46:56;;;;;;;22.30;16.02;;;;;;;;;;5148025;27;20081;-73
2022/11/13 12:49:26;;;;;;;26.50;18.17;;;;;;;;;;5129988;27;20043;-72
2022/11/13 12:51:54;;;;;;;24.33;15.90;;;;;;;;;;5134716;27;20097;-71
2022/11/13 12:54:30;;;;;;;22.80;16.38;;;;;;;;;;5150649;27;20444;-76
2022/11/13 12:57:16;;;;;;;21.73;15.77;;;;;;;;;;5147846;27;20422;-72
2022/11/13 12:59:48;;;;;;;22.30;16.42;;;;;;;;;;5147383;27;20402;-72
2022/11/13 13:02:14;;;;;;;22.95;16.73;;;;;;;;;;5152200;27;20070;-71
2022/11/13 13:04:46;;;;;;;22.88;16.92;;;;;;;;;;5135659;27;20089;-71
2022/11/13 13:07:15;;;;;;;22.83;15.98;;;;;;;;;;5142319;27;20062;-71
2022/11/13 13:09:51;;;;;;;21.70;15.82;;;;;;;;;;5145256;27;20039;-71
2022/11/13 13:12:34;;;;;;;22.33;15.87;;;;;;;;;;5122382;27;20502;-71
2022/11/13 13:15:19;;;;;;;22.63;15.40;;;;;;;;;;5138254;27;20340;-73
2022/11/13 13:17:45;;;;;;;22.48;16.30;;;;;;;;;;5144763;27;20051;-71
2022/11/13 13:20:20;;;;;;;25.90;16.85;;;;;;;;;;5147622;27;20038;-72
2022/11/13 13:22:55;;;;;;;22.50;16.25;;;;;;;;;;5134520;27;20379;-68
2022/11/13 13:25:29;;;;;;;22.63;16.20;;;;;;;;;;5150118;27;20070;-70
2022/11/13 13:28:16;;;;;;;20.90;15.38;;;;;;;;;;5144978;27;20515;-71
2022/11/13 13:30:52;;;;;;;22.60;16.13;;;;;;;;;;5153836;27;20074;-71
2022/11/13 13:33:28;;;;;;;23.10;16.60;;;;;;;;;;5138161;27;20755;-71
2022/11/13 13:36:02;;;;;;;21.00;15.73;;;;;;;;;;5155241;27;20383;-71
2022/11/13 13:38:31;;;;;;;21.10;15.27;;;;;;;;;;5155012;27;20134;-71
2022/11/13 13:41:05;;;;;;;23.10;15.77;;;;;;;;;;5168794;27;20397;-71
2022/11/13 13:43:34;;;;;;;23.05;16.85;;;;;;;;;;5179026;27;20129;-72
2022/11/13 13:46:00;;;;;;;21.98;16.55;;;;;;;;;;5155012;27;20075;-71
2022/11/13 13:48:27;;;;;;;22.17;16.85;;;;;;;;;;5137223;27;20050;-72
2022/11/13 13:50:53;;;;;;;24.13;16.75;;;;;;;;;;5136302;27;20104;-72
2022/11/13 13:53:30;;;;;;;23.45;17.45;;;;;;;;;;5156646;27;20102;-70
2022/11/13 13:55:56;;;;;;;;;;;;;;;;;;5139494;27;20113;-73
2022/11/13 13:58:26;;;;;;;24.33;17.42;;;;;;;;;;5162541;27;19922;-73
2022/11/13 14:00:59;;;;;;;22.83;17.33;;;;;;;;;;5139953;27;20040;-71
2022/11/13 14:03:28;;;;;;;24.02;16.95;;;;;;;;;;5145338;27;20145;-71
2022/11/13 14:05:54;;;;;;;22.23;17.00;;;;;;;;;;5140386;27;20087;-72
2022/11/13 14:08:23;;;;;;;22.45;16.50;;;;;;;;;;5154309;27;20038;-71
2022/11/13 14:10:50;;;;;;;22.38;17.25;;;;;;;;;;5154419;27;20039;-74
2022/11/13 14:13:16;;;;;;;;;;;;;;;;;;5157981;27;20046;-74
2022/11/13 14:15:42;;;;;;;24.08;17.65;;;;;;;;;;5151232;27;20371;-72
2022/11/13 14:18:11;;;;;;;25.40;18.15;;;;;;;;;;5157407;27;20049;-72
2022/11/13 14:20:42;;;;;;;22.58;16.27;;;;;;;;;;5156944;27;20050;-71
2022/11/13 14:23:10;;;;;;;22.65;17.10;;;;;;;;;;5150238;27;20077;-72
2022/11/13 14:25:36;;;;;;;21.92;16.83;;;;;;;;;;5151176;27;20130;-69